KBIS

Bismarck Municipal Airport

Bismarck, North Dakota, USA
KBIS 171318Z 1713/1812 VRB04KT 6SM FU SCT250 FM171700 15007KT 6SM FU SCT250
Issued Valid From Valid To
Aug-17 @ 13:18 UTC
(2 hours ago)
Aug-17 @ 13:00 UTC
(2 hours ago)
Aug-18 @ 12:00 UTC
(in 21 hours)
Aug-17 @ 13:00 to Aug-17 @ 17:00
KBIS 171318Z 1713/1812 VRB04KT 6SM FU SCT250
Wind Visibility Clouds Conditions
Variable at 4 knots 6 miles
  • Scattered at 25,000' AGL
  • Smoke
From Aug-17 @ 17:00 to Aug-18 @ 12:00
FM171700 15007KT 6SM FU SCT250
Wind Visibility Clouds Conditions
150° at 7 knots 6 miles
  • Scattered at 25,000' AGL
  • Smoke
KBIS 171318Z 1713/1812 VRB04KT 6SM FU SCT250 FM171700 15007KT 6SM FU SCT250
Issued Aug-17 @ 13:18 UTC
(2 hours ago)
Valid From Aug-17 @ 13:00 UTC
(2 hours ago)
Valid To Aug-18 @ 12:00 UTC
(in 21 hours)
Aug-17 @ 13:00 - Aug-17 @ 17:00
Wind Visibility
Variable at 4 knots 6 miles
Clouds
  • Scattered at 25,000' AGL
Conditions
  • Smoke
From Aug-17 @ 17:00 - Aug-18 @ 12:00
Wind Visibility
150° at 7 knots 6 miles
Clouds
  • Scattered at 25,000' AGL
Conditions
  • Smoke